Time;durP1;ratioP1;P1;durP2;ratioP2;P2;SDS_P1;SDS_P2;PMS_P1;PMS_P2;Temp;Humidity;BMP_temperature;BMP_pressure;BME280_temperature;BME280_humidity;BME280_pressure;Samples;Min_cycle;Max_cycle;Signal;HPM_P1;HPM_P2
2022/01/30 00:00:00;;;;;;;10.00;7.40;;;2.00;93.10;;;;;;5035204;28;20171;-86
2022/01/30 00:02:29;;;;;;;10.97;7.97;;;2.10;93.20;;;;;;5035120;28;20170;-85
2022/01/30 00:04:55;;;;;;;9.80;7.73;;;2.10;93.20;;;;;;5035607;28;20176;-87
2022/01/30 00:07:21;;;;;;;10.33;8.67;;;2.20;93.40;;;;;;5034344;28;20182;-86
2022/01/30 00:09:48;;;;;;;8.53;7.20;;;2.20;93.00;;;;;;5034382;28;20538;-84
2022/01/30 00:12:17;;;;;;;11.07;8.07;;;2.30;93.10;;;;;;5034264;28;20258;-85
2022/01/30 00:14:43;;;;;;;8.80;7.70;;;2.30;93.20;;;;;;5035521;28;20263;-86
2022/01/30 00:19:40;;;;;;;9.63;7.17;;;2.40;93.10;;;;;;5036515;28;20169;-85
2022/01/30 00:22:34;;;;;;;11.87;8.43;;;2.50;93.00;;;;;;5035243;28;20554;-84
2022/01/30 00:25:06;;;;;;;9.63;7.97;;;2.50;93.00;;;;;;5034723;28;20187;-84
2022/01/30 00:27:44;;;;;;;13.07;7.47;;;2.40;93.10;;;;;;5034927;28;20514;-85
2022/01/30 00:30:13;;;;;;;14.43;9.00;;;2.50;92.90;;;;;;5034918;28;20226;-85
2022/01/30 00:32:40;;;;;;;12.50;8.10;;;2.40;93.00;;;;;;5034505;28;20170;-85
2022/01/30 00:35:08;;;;;;;10.97;7.90;;;2.40;93.00;;;;;;5034388;28;20163;-84
2022/01/30 00:37:39;;;;;;;12.40;8.13;;;2.40;93.20;;;;;;5015744;28;20187;-85
2022/01/30 00:40:07;;;;;;;11.53;8.57;;;2.40;93.20;;;;;;5015764;28;20172;-84
2022/01/30 00:42:33;;;;;;;10.03;7.77;;;2.40;93.30;;;;;;5033595;28;20180;-85
2022/01/30 00:44:58;;;;;;;10.63;8.13;;;2.40;93.10;;;;;;5015673;28;20183;-85
2022/01/30 00:47:24;;;;;;;11.03;8.20;;;2.40;93.20;;;;;;5033343;28;20175;-85
2022/01/30 00:49:50;;;;;;;9.93;8.10;;;2.40;93.30;;;;;;5033536;28;20171;-84
2022/01/30 00:52:17;;;;;;;10.90;8.40;;;2.40;93.40;;;;;;5015797;28;20182;-83
2022/01/30 00:54:46;;;;;;;11.03;8.40;;;2.40;93.50;;;;;;5033750;28;20172;-87
2022/01/30 00:57:12;;;;;;;15.83;9.33;;;2.30;93.40;;;;;;5033653;28;20294;-87
2022/01/30 00:59:38;;;;;;;12.90;8.93;;;2.20;93.30;;;;;;5033309;28;20310;-87
2022/01/30 01:02:04;;;;;;;10.33;9.23;;;2.20;93.60;;;;;;5033370;28;20184;-86
2022/01/30 01:04:30;;;;;;;11.53;8.50;;;2.10;93.70;;;;;;5015578;28;20651;-87
2022/01/30 01:06:56;;;;;;;11.13;9.03;;;2.20;93.60;;;;;;5033416;28;20245;-85
2022/01/30 01:09:28;;;;;;;11.70;8.87;;;2.20;93.70;;;;;;5035421;28;20513;-87
2022/01/30 01:12:30;;;;;;;13.37;8.87;;;2.20;93.70;;;;;;5044159;28;20164;-87
2022/01/30 01:26:06;;;;;;;14.33;7.73;;;2.10;93.70;;;;;;4956637;29;20272;-86
2022/01/30 01:28:32;;;;;;;9.97;7.90;;;2.10;93.80;;;;;;4956774;29;20698;-87
2022/01/30 01:30:58;;;;;;;11.07;7.93;;;2.10;93.90;;;;;;4959945;29;20270;-87
2022/01/30 01:33:29;;;;;;;10.17;7.87;;;2.10;93.60;;;;;;4957329;29;20186;-87
2022/01/30 01:35:55;;;;;;;9.77;7.53;;;2.10;93.90;;;;;;4958206;29;20286;-86
2022/01/30 01:38:21;;;;;;;10.60;7.93;;;2.10;93.90;;;;;;4956797;29;20182;-85
2022/01/30 01:40:52;;;;;;;9.70;7.93;;;2.20;93.70;;;;;;4956532;29;20190;-87
2022/01/30 01:43:19;;;;;;;8.97;7.53;;;2.20;93.80;;;;;;4957099;29;20656;-86
2022/01/30 01:45:48;;;;;;;9.33;6.80;;;2.10;93.80;;;;;;4956580;29;20189;-87
2022/01/30 01:48:15;;;;;;;9.77;7.13;;;2.20;93.60;;;;;;4956772;29;20564;-84
2022/01/30 01:50:45;;;;;;;8.67;7.23;;;2.20;93.60;;;;;;4956663;29;20652;-87
2022/01/30 01:53:14;;;;;;;13.40;6.93;;;2.20;93.70;;;;;;4956995;29;20184;-87
2022/01/30 01:55:42;;;;;;;8.97;7.17;;;2.20;93.50;;;;;;4959963;29;20226;-86
2022/01/30 01:58:08;;;;;;;11.60;7.97;;;2.10;93.60;;;;;;4976473;29;20691;-83
2022/01/30 02:00:35;;;;;;;8.97;7.40;;;2.20;93.60;;;;;;5022866;28;20186;-87
2022/01/30 02:03:01;;;;;;;13.17;7.97;;;2.20;93.70;;;;;;5020751;28;20174;-86
2022/01/30 02:05:29;;;;;;;12.87;7.73;;;2.20;93.70;;;;;;5038140;28;20179;-87
2022/01/30 02:10:52;;;;;;;11.03;7.47;;;2.20;94.00;;;;;;5036769;28;20631;-86
2022/01/30 02:13:47;;;;;;;12.80;8.23;;;2.20;94.10;;;;;;5035077;28;20635;-87
2022/01/30 02:27:20;;;;;;;14.77;7.63;;;2.10;94.40;;;;;;5036396;28;20165;-86
2022/01/30 02:29:46;;;;;;;9.53;7.90;;;2.10;94.30;;;;;;5034914;28;20238;-85
2022/01/30 02:32:12;;;;;;;11.13;7.60;;;2.20;94.40;;;;;;5035824;28;20205;-84
2022/01/30 02:34:39;;;;;;;11.20;7.37;;;2.30;94.20;;;;;;5018721;28;20179;-85
2022/01/30 02:37:06;;;;;;;11.63;8.30;;;2.20;94.20;;;;;;5035686;28;20244;-86
2022/01/30 02:39:32;;;;;;;10.43;7.80;;;2.10;94.30;;;;;;5035735;28;20170;-87
2022/01/30 02:41:58;;;;;;;12.10;7.40;;;2.20;94.40;;;;;;5035742;28;20190;-84
2022/01/30 02:44:32;;;;;;;11.50;7.47;;;2.10;94.30;;;;;;5035803;28;20180;-85
2022/01/30 02:47:02;;;;;;;8.40;7.60;;;2.10;94.40;;;;;;5036029;28;20190;-84
2022/01/30 02:52:15;;;;;;;10.50;7.20;;;2.10;94.40;;;;;;4996042;28;20216;-86
2022/01/30 02:54:41;;;;;;;9.73;7.40;;;2.10;94.40;;;;;;5035543;28;20167;-86
2022/01/30 02:57:07;;;;;;;11.97;8.13;;;2.10;94.50;;;;;;5035782;28;20207;-86
2022/01/30 02:59:33;;;;;;;12.57;7.10;;;2.00;94.60;;;;;;5037474;28;20179;-86
2022/01/30 03:02:01;;;;;;;10.63;7.90;;;2.00;94.60;;;;;;5044428;28;20269;-87
2022/01/30 03:04:27;;;;;;;11.20;7.33;;;2.10;94.60;;;;;;5048752;28;20169;-86
2022/01/30 03:06:53;;;;;;;9.67;7.77;;;2.00;94.20;;;;;;5037699;28;20240;-86
2022/01/30 03:09:19;;;;;;;19.97;8.60;;;2.00;94.40;;;;;;5035195;28;20174;-87
2022/01/30 03:11:45;;;;;;;11.53;8.60;;;1.80;94.20;;;;;;5035187;28;20571;-86
2022/01/30 03:14:11;;;;;;;11.70;8.03;;;1.70;94.20;;;;;;5034999;28;20171;-87
2022/01/30 03:16:37;;;;;;;11.87;8.27;;;1.70;94.30;;;;;;5035119;28;20215;-86
2022/01/30 03:19:02;;;;;;;11.07;7.90;;;1.90;94.30;;;;;;5017283;28;20190;-85
2022/01/30 03:21:28;;;;;;;11.03;8.10;;;1.90;94.20;;;;;;5034728;28;20176;-87
2022/01/30 03:23:54;;;;;;;10.37;8.40;;;1.80;94.10;;;;;;5034918;28;20178;-87
2022/01/30 03:26:20;;;;;;;12.97;8.67;;;1.80;94.00;;;;;;5034884;28;20171;-86
2022/01/30 03:28:48;;;;;;;13.10;8.27;;;1.80;94.10;;;;;;5034453;28;20224;-87
2022/01/30 03:31:14;;;;;;;18.93;8.37;;;1.80;94.20;;;;;;5035064;28;20666;-85
2022/01/30 03:33:40;;;;;;;12.90;8.70;;;1.70;94.20;;;;;;5034733;28;20194;-87
2022/01/30 03:36:06;;;;;;;9.10;7.40;;;1.70;94.10;;;;;;5016901;28;20249;-87
2022/01/30 03:38:32;;;;;;;11.67;8.00;;;1.70;94.00;;;;;;5034525;28;20229;-87
2022/01/30 03:40:59;;;;;;;10.70;7.87;;;1.80;93.70;;;;;;5034441;28;20649;-87
2022/01/30 03:43:25;;;;;;;12.20;7.33;;;1.80;93.80;;;;;;5033912;28;20203;-87
2022/01/30 03:45:51;;;;;;;9.33;8.37;;;1.80;93.90;;;;;;5034395;28;20216;-86
2022/01/30 03:48:17;;;;;;;9.70;8.03;;;1.70;94.00;;;;;;5034646;28;20646;-85
2022/01/30 03:50:44;;;;;;;11.77;7.73;;;1.80;93.70;;;;;;5016525;28;20197;-85
2022/01/30 03:53:10;;;;;;;13.37;8.53;;;1.80;93.60;;;;;;5034121;28;20165;-84
2022/01/30 03:55:38;;;;;;;11.43;8.00;;;1.80;93.80;;;;;;5034194;28;20627;-85
2022/01/30 03:58:04;;;;;;;9.40;7.90;;;1.80;93.90;;;;;;5034203;28;20161;-85
2022/01/30 04:00:30;;;;;;;11.53;8.70;;;1.80;94.00;;;;;;5034167;28;20173;-85
2022/01/30 04:02:56;;;;;;;14.17;9.03;;;1.70;93.80;;;;;;5033995;28;20233;-84
2022/01/30 04:05:22;;;;;;;11.10;8.03;;;1.70;93.80;;;;;;5016465;28;20274;-85
2022/01/30 04:07:52;;;;;;;9.73;8.73;;;1.70;94.00;;;;;;5034106;28;20175;-86
2022/01/30 04:10:18;;;;;;;10.93;8.60;;;1.70;94.10;;;;;;5034125;28;20210;-84
2022/01/30 04:12:44;;;;;;;11.73;8.83;;;1.60;93.80;;;;;;5034621;28;20262;-84
2022/01/30 04:15:11;;;;;;;11.80;8.43;;;1.60;94.00;;;;;;5033870;28;20175;-84
2022/01/30 04:17:37;;;;;;;12.57;8.67;;;1.70;94.00;;;;;;5034041;28;20172;-87
2022/01/30 04:20:03;;;;;;;12.20;7.93;;;1.70;94.10;;;;;;5034035;28;20181;-86
2022/01/30 04:22:29;;;;;;;10.40;8.73;;;1.60;94.20;;;;;;5033881;28;20644;-86
2022/01/30 04:24:55;;;;;;;14.07;8.90;;;1.60;93.70;;;;;;5033833;28;20177;-85
2022/01/30 04:27:20;;;;;;;13.23;8.60;;;1.70;93.80;;;;;;5033700;28;20641;-83
2022/01/30 04:29:48;;;;;;;12.83;8.67;;;1.70;93.80;;;;;;5033504;28;20218;-86
2022/01/30 04:32:15;;;;;;;10.47;8.43;;;1.70;93.90;;;;;;5034573;28;20192;-86
2022/01/30 04:34:44;;;;;;;12.77;8.43;;;1.70;93.70;;;;;;5034188;28;20164;-85
2022/01/30 04:37:23;;;;;;;12.57;8.53;;;1.50;93.90;;;;;;5034775;28;20296;-87
2022/01/30 04:59:30;;;;;;;15.73;9.80;;;1.30;94.70;;;;;;4959420;29;20219;-86
2022/01/30 05:09:42;;;;;;;14.67;9.70;;;1.00;94.70;;;;;;5038458;28;20185;-85
2022/01/30 05:12:09;;;;;;;14.93;10.30;;;0.80;94.80;;;;;;5037950;28;20205;-85
2022/01/30 05:14:36;;;;;;;12.10;9.60;;;0.90;95.10;;;;;;5037604;28;20177;-85
2022/01/30 05:17:04;;;;;;;15.83;9.93;;;0.90;94.90;;;;;;5037776;28;20200;-84
2022/01/30 05:19:31;;;;;;;16.97;10.07;;;1.00;94.90;;;;;;5037958;28;20253;-83
2022/01/30 05:21:58;;;;;;;17.60;10.23;;;1.00;94.80;;;;;;5037802;28;20345;-84
2022/01/30 05:24:24;;;;;;;13.43;10.13;;;1.00;94.80;;;;;;5037652;28;20169;-85
2022/01/30 05:26:51;;;;;;;13.27;10.87;;;1.00;94.90;;;;;;5037244;28;20622;-85
2022/01/30 05:29:17;;;;;;;15.73;10.53;;;1.00;95.00;;;;;;5036715;28;20259;-84
2022/01/30 05:31:44;;;;;;;14.07;10.27;;;1.00;95.10;;;;;;5037292;28;20179;-86
2022/01/30 05:34:11;;;;;;;15.97;10.30;;;1.00;95.00;;;;;;5036822;28;20193;-85
2022/01/30 05:36:40;;;;;;;13.20;10.20;;;1.00;95.10;;;;;;5036694;28;20256;-84
2022/01/30 05:39:07;;;;;;;12.83;9.93;;;1.00;95.10;;;;;;5036863;28;20166;-85
2022/01/30 05:41:33;;;;;;;15.13;10.47;;;1.00;95.00;;;;;;5037142;28;20257;-84
2022/01/30 05:44:09;;;;;;;14.53;10.73;;;1.10;95.00;;;;;;5037704;28;20221;-85
2022/01/30 05:46:42;;;;;;;15.27;10.67;;;1.00;95.20;;;;;;5019787;28;20172;-84
2022/01/30 05:49:10;;;;;;;16.57;9.93;;;1.00;95.00;;;;;;5037067;28;20158;-85
2022/01/30 05:51:36;;;;;;;14.50;10.23;;;1.10;95.00;;;;;;5036849;28;20721;-85
2022/01/30 05:54:02;;;;;;;13.73;9.53;;;1.10;95.00;;;;;;5036676;28;20254;-84
2022/01/30 05:56:28;;;;;;;14.97;9.87;;;1.10;95.30;;;;;;5036367;28;20205;-84
2022/01/30 05:58:54;;;;;;;14.63;9.83;;;1.10;95.20;;;;;;5036431;28;20171;-86
2022/01/30 06:01:19;;;;;;;13.63;10.33;;;1.10;95.40;;;;;;5036415;28;20174;-87
2022/01/30 06:03:45;;;;;;;12.87;10.20;;;1.00;95.30;;;;;;5036763;28;20626;-86
2022/01/30 06:06:13;;;;;;;14.33;10.07;;;1.00;95.40;;;;;;5035196;28;20520;-87
2022/01/30 06:11:05;;;;;;;13.07;9.67;;;1.10;95.30;;;;;;5036322;28;20532;-86
2022/01/30 06:13:31;;;;;;;14.70;10.40;;;1.10;95.30;;;;;;5036407;28;20626;-86
2022/01/30 06:15:57;;;;;;;12.63;9.30;;;1.00;95.30;;;;;;5040965;28;20202;-84
2022/01/30 06:18:23;;;;;;;11.13;9.87;;;1.10;95.40;;;;;;5041207;28;20178;-84
2022/01/30 06:20:49;;;;;;;14.30;9.97;;;1.10;95.40;;;;;;5058549;28;20184;-83
2022/01/30 06:23:15;;;;;;;16.27;10.87;;;1.20;95.50;;;;;;5040555;28;20188;-86
2022/01/30 06:25:41;;;;;;;17.00;9.67;;;1.30;95.50;;;;;;5039439;28;20166;-86
2022/01/30 06:28:07;;;;;;;12.23;9.20;;;1.20;95.40;;;;;;5036550;28;20188;-85
2022/01/30 06:30:33;;;;;;;13.43;9.30;;;1.20;95.50;;;;;;5036108;28;20625;-86
2022/01/30 06:32:59;;;;;;;11.07;7.57;;;1.20;95.80;;;;;;5036110;28;20220;-86
2022/01/30 06:35:26;;;;;;;13.53;10.10;;;1.20;96.10;;;;;;5035839;28;20174;-86
2022/01/30 06:37:52;;;;;;;13.17;9.10;;;1.40;95.90;;;;;;5018812;28;20210;-86
2022/01/30 06:40:18;;;;;;;13.60;9.77;;;1.40;95.50;;;;;;5023539;28;20547;-86
2022/01/30 06:42:44;;;;;;;14.63;9.83;;;1.40;95.60;;;;;;5047392;28;20200;-86
2022/01/30 06:45:10;;;;;;;7.23;4.87;;;1.40;95.60;;;;;;5030905;28;20186;-87
2022/01/30 06:47:43;;;;;;;1.83;1.73;;;1.60;97.60;;;;;;5040205;28;20186;-87
2022/01/30 06:50:10;;;;;;;0.90;0.90;;;2.60;99.90;;;;;;5036740;28;20171;-87
2022/01/30 06:52:40;;;;;;;0.60;0.60;;;4.10;99.80;;;;;;5038616;28;20274;-87
2022/01/30 06:55:07;;;;;;;0.37;0.37;;;4.90;98.70;;;;;;5041458;28;20266;-87
2022/01/30 06:57:34;;;;;;;0.30;0.30;;;6.00;97.20;;;;;;5035340;28;20219;-85
2022/01/30 07:00:00;;;;;;;0.30;0.30;;;6.60;96.00;;;;;;5035424;28;20193;-86
2022/01/30 07:02:26;;;;;;;0.87;0.53;;;7.00;95.50;;;;;;5035336;28;20169;-87
2022/01/30 07:04:52;;;;;;;0.53;0.53;;;7.30;95.20;;;;;;5035202;28;20179;-87
2022/01/30 07:07:21;;;;;;;0.40;0.40;;;7.50;94.90;;;;;;5035556;28;20177;-87
2022/01/30 07:09:47;;;;;;;1.50;0.47;;;7.60;94.70;;;;;;5035339;28;20259;-85
2022/01/30 07:12:12;;;;;;;0.30;0.30;;;7.80;94.50;;;;;;5035148;28;20198;-85
2022/01/30 07:14:38;;;;;;;0.30;0.30;;;8.00;94.30;;;;;;5034982;28;20700;-85
2022/01/30 07:17:04;;;;;;;0.23;0.20;;;7.90;94.20;;;;;;5034551;28;20204;-85
2022/01/30 07:19:33;;;;;;;0.30;0.30;;;8.20;93.80;;;;;;5034849;28;20182;-86
2022/01/30 07:21:58;;;;;;;0.20;0.20;;;8.40;93.30;;;;;;5035259;28;20534;-84
2022/01/30 07:24:24;;;;;;;1.37;0.40;;;8.50;93.20;;;;;;5034971;28;20657;-85
2022/01/30 07:26:50;;;;;;;0.20;0.20;;;8.60;93.00;;;;;;5035171;28;20181;-86
2022/01/30 07:29:16;;;;;;;0.20;0.20;;;8.70;92.70;;;;;;5034771;28;20227;-86
2022/01/30 07:31:42;;;;;;;0.40;0.40;;;8.80;92.60;;;;;;5034939;28;20183;-84
2022/01/30 07:34:07;;;;;;;0.37;0.37;;;8.80;92.50;;;;;;5017082;28;20183;-85
2022/01/30 07:36:36;;;;;;;0.20;0.20;;;8.90;92.40;;;;;;5034498;28;20232;-85
2022/01/30 07:39:07;;;;;;;0.67;0.50;;;8.90;92.30;;;;;;5035093;28;20192;-87
2022/01/30 07:41:34;;;;;;;0.30;0.30;;;9.00;91.80;;;;;;5035058;28;20175;-87
2022/01/30 07:44:01;;;;;;;0.30;0.30;;;9.00;91.40;;;;;;5035938;28;20211;-88
2022/01/30 07:46:28;;;;;;;0.20;0.20;;;9.10;90.90;;;;;;5034833;28;20176;-88
2022/01/30 07:48:55;;;;;;;0.40;0.40;;;9.10;91.00;;;;;;5035222;28;20702;-86
2022/01/30 07:51:21;;;;;;;1.90;0.43;;;9.10;91.10;;;;;;5034503;28;20262;-86
2022/01/30 07:53:47;;;;;;;3.33;3.03;;;9.20;91.10;;;;;;5034374;28;20183;-87
2022/01/30 07:56:13;;;;;;;1.13;0.70;;;9.30;91.10;;;;;;5034636;28;20235;-87
2022/01/30 07:58:39;;;;;;;0.50;0.50;;;9.20;90.80;;;;;;5035070;28;20172;-87
2022/01/30 08:01:06;;;;;;;1.27;0.67;;;9.20;90.50;;;;;;5034458;28;20224;-87
2022/01/30 08:03:32;;;;;;;0.50;0.50;;;9.60;88.00;;;;;;5034859;28;20198;-85
2022/01/30 08:05:58;;;;;;;0.50;0.50;;;9.80;87.50;;;;;;5036246;28;20180;-86
2022/01/30 08:08:24;;;;;;;0.50;0.50;;;9.80;87.90;;;;;;5034555;28;20198;-86
2022/01/30 08:10:50;;;;;;;0.40;0.40;;;9.80;87.20;;;;;;5034471;28;20183;-87
2022/01/30 08:13:16;;;;;;;0.50;0.50;;;9.90;87.20;;;;;;5034589;28;20183;-87
2022/01/30 08:15:46;;;;;;;0.60;0.60;;;10.00;84.50;;;;;;5034265;28;20718;-87
2022/01/30 08:18:12;;;;;;;0.30;0.30;;;10.10;84.20;;;;;;5034176;28;20182;-84
2022/01/30 08:20:38;;;;;;;0.40;0.40;;;10.10;83.70;;;;;;5034106;28;20547;-87
2022/01/30 08:23:12;;;;;;;0.87;0.40;;;10.10;81.50;;;;;;5033962;28;20180;-87
2022/01/30 08:25:39;;;;;;;3.33;0.50;;;10.40;79.80;;;;;;5034173;28;20256;-87
2022/01/30 08:28:05;;;;;;;4.43;0.60;;;10.50;79.00;;;;;;5033255;28;20241;-87
2022/01/30 08:30:31;;;;;;;2.10;0.67;;;10.60;78.40;;;;;;5034663;28;20180;-86
2022/01/30 08:33:00;;;;;;;0.53;0.40;;;10.70;78.10;;;;;;5041025;28;20206;-87
2022/01/30 08:35:26;;;;;;;2.33;0.43;;;10.80;78.00;;;;;;5048700;28;20172;-86
2022/01/30 08:37:52;;;;;;;0.70;0.43;;;10.80;78.10;;;;;;5043890;28;20178;-87
2022/01/30 08:40:20;;;;;;;0.67;0.40;;;10.90;78.20;;;;;;5039523;28;20247;-87
2022/01/30 08:42:47;;;;;;;2.40;1.37;;;10.90;78.70;;;;;;5045225;28;20169;-87
2022/01/30 08:45:15;;;;;;;0.60;0.60;;;10.90;79.30;;;;;;5023758;28;20176;-86
2022/01/30 08:47:43;;;;;;;1.50;0.60;;;10.90;79.40;;;;;;5037479;28;20167;-84
2022/01/30 08:50:12;;;;;;;2.93;0.83;;;10.90;79.50;;;;;;5041354;28;20231;-86
2022/01/30 08:52:38;;;;;;;2.03;0.53;;;10.90;80.70;;;;;;5024779;28;20195;-84
2022/01/30 08:55:06;;;;;;;0.37;0.37;;;10.80;80.60;;;;;;5024867;28;20235;-87
2022/01/30 08:57:33;;;;;;;1.23;0.60;;;10.80;80.30;;;;;;5034503;28;20192;-87
2022/01/30 08:59:59;;;;;;;2.43;0.70;;;10.90;80.10;;;;;;5017425;28;20186;-88
2022/01/30 09:02:26;;;;;;;0.60;0.40;;;10.90;79.00;;;;;;5034858;28;20184;-87
2022/01/30 09:04:53;;;;;;;2.07;1.10;;;10.90;78.80;;;;;;5034543;28;20173;-88
2022/01/30 09:07:19;;;;;;;1.67;0.50;;;10.90;79.30;;;;;;5034247;28;20178;-85
2022/01/30 09:09:45;;;;;;;1.43;0.37;;;10.90;79.00;;;;;;5033360;28;20172;-83
2022/01/30 09:12:12;;;;;;;1.50;0.50;;;10.90;77.80;;;;;;5033711;28;20177;-84
2022/01/30 09:14:40;;;;;;;1.97;0.50;;;11.00;77.70;;;;;;5033513;28;20188;-84
2022/01/30 09:17:12;;;;;;;1.80;0.30;;;11.10;77.20;;;;;;5033323;28;20192;-86
2022/01/30 09:19:43;;;;;;;0.30;0.30;;;11.10;77.20;;;;;;5016197;28;20540;-85
2022/01/30 09:22:10;;;;;;;0.73;0.53;;;11.20;75.60;;;;;;5015900;28;20274;-86
2022/01/30 09:24:37;;;;;;;0.40;0.40;;;11.20;75.90;;;;;;5033597;28;20179;-84
2022/01/30 09:27:05;;;;;;;3.77;0.60;;;11.20;75.70;;;;;;5033787;28;20180;-84
2022/01/30 09:29:31;;;;;;;1.60;0.50;;;11.30;74.30;;;;;;5034126;28;20301;-84
2022/01/30 09:31:58;;;;;;;0.40;0.40;;;11.30;74.40;;;;;;5015964;28;20213;-85
2022/01/30 09:34:24;;;;;;;0.93;0.40;;;11.30;74.80;;;;;;5033491;28;20500;-85
2022/01/30 09:36:54;;;;;;;2.53;0.43;;;11.40;73.60;;;;;;5033692;28;20213;-85
2022/01/30 09:39:20;;;;;;;1.70;0.50;;;11.40;73.40;;;;;;5019322;28;20189;-85
2022/01/30 09:41:50;;;;;;;1.13;0.40;;;11.40;73.30;;;;;;5039418;28;20176;-85
2022/01/30 09:44:18;;;;;;;4.83;0.50;;;11.40;73.30;;;;;;5037840;28;20173;-84
2022/01/30 09:46:44;;;;;;;1.43;0.60;;;11.50;72.00;;;;;;5038334;28;20703;-85
2022/01/30 09:49:11;;;;;;;0.30;0.30;;;11.60;71.10;;;;;;5037602;28;20669;-85
2022/01/30 09:51:45;;;;;;;0.30;0.30;;;11.60;71.40;;;;;;5036986;28;20632;-85
2022/01/30 09:54:12;;;;;;;3.27;0.60;;;11.70;71.10;;;;;;5037447;28;20196;-85
2022/01/30 09:56:39;;;;;;;0.50;0.50;;;11.60;70.50;;;;;;5037007;28;20196;-85
2022/01/30 09:59:05;;;;;;;2.30;0.60;;;11.70;69.40;;;;;;5037023;28;20171;-86
2022/01/30 10:01:34;;;;;;;1.60;0.40;;;11.70;70.10;;;;;;5036824;28;20173;-86
2022/01/30 10:04:04;;;;;;;1.40;0.50;;;11.70;70.30;;;;;;5036883;28;20735;-86
2022/01/30 10:06:37;;;;;;;0.67;0.43;;;11.70;69.50;;;;;;5019110;28;20260;-87
2022/01/30 10:09:44;;;;;;;1.50;0.50;;;11.70;69.90;;;;;;5019332;28;20307;-87
2022/01/30 10:12:20;;;;;;;1.13;0.40;;;11.70;70.50;;;;;;5037037;28;20162;-87
2022/01/30 10:15:06;;;;;;;6.20;0.90;;;11.70;70.10;;;;;;5036925;28;20219;-86
2022/01/30 10:17:39;;;;;;;1.50;0.43;;;11.60;70.40;;;;;;5037125;28;20197;-87
2022/01/30 10:20:12;;;;;;;1.73;0.50;;;11.60;70.60;;;;;;5037030;28;20165;-86
2022/01/30 10:22:49;;;;;;;1.23;0.50;;;11.50;70.30;;;;;;5038576;28;20371;-85
2022/01/30 10:25:26;;;;;;;1.27;0.50;;;11.60;70.60;;;;;;5043857;28;20168;-86
2022/01/30 10:28:26;;;;;;;3.10;0.70;;;11.60;71.00;;;;;;5047081;28;20183;-87
2022/01/30 10:30:58;;;;;;;0.30;0.20;;;11.60;71.50;;;;;;4938562;29;20689;-87
2022/01/30 10:33:42;;;;;;;3.77;0.30;;;11.50;71.80;;;;;;4940231;29;20266;-85
2022/01/30 10:36:09;;;;;;;0.40;0.40;;;11.50;71.80;;;;;;4937168;29;20800;-86
2022/01/30 10:38:40;;;;;;;1.17;0.30;;;11.40;71.90;;;;;;4936921;29;20173;-86
2022/01/30 10:41:20;;;;;;;0.30;0.30;;;11.40;71.60;;;;;;4920752;29;20692;-87
2022/01/30 10:44:06;;;;;;;3.73;0.40;;;11.30;70.90;;;;;;4936885;29;20571;-88
2022/01/30 10:46:46;;;;;;;1.00;0.40;;;11.30;71.80;;;;;;4938609;29;20586;-86
2022/01/30 10:49:22;;;;;;;0.53;0.53;;;11.30;71.80;;;;;;4937851;29;20191;-86
2022/01/30 10:51:57;;;;;;;0.63;0.37;;;11.30;72.10;;;;;;4938190;29;20176;-85
2022/01/30 10:54:26;;;;;;;0.30;0.30;;;11.30;72.20;;;;;;4938673;29;20175;-85
2022/01/30 10:57:02;;;;;;;2.63;0.50;;;11.20;72.20;;;;;;4938572;29;20306;-84
2022/01/30 10:59:28;;;;;;;0.30;0.30;;;11.10;71.70;;;;;;4937367;29;20587;-86
2022/01/30 11:01:54;;;;;;;0.30;0.30;;;11.10;72.10;;;;;;4936758;29;20291;-84
2022/01/30 11:04:24;;;;;;;0.50;0.27;;;11.10;72.30;;;;;;4936112;29;20520;-86
2022/01/30 11:06:51;;;;;;;2.73;0.50;;;11.10;72.00;;;;;;4957297;28;20275;-86
2022/01/30 11:09:31;;;;;;;0.53;0.40;;;11.10;72.80;;;;;;5035741;28;20168;-87
2022/01/30 11:12:14;;;;;;;0.40;0.40;;;11.00;73.00;;;;;;5017662;28;20168;-86
2022/01/30 11:17:15;;;;;;;0.40;0.40;;;11.00;73.00;;;;;;5035752;28;20204;-87
2022/01/30 11:19:44;;;;;;;0.60;0.30;;;11.10;72.60;;;;;;5036037;28;20172;-86
2022/01/30 11:22:12;;;;;;;2.17;0.50;;;11.00;72.20;;;;;;5035094;28;20613;-86
2022/01/30 11:24:46;;;;;;;0.33;0.33;;;11.10;71.70;;;;;;5035559;28;20625;-86
2022/01/30 11:27:17;;;;;;;0.60;0.60;;;11.00;72.30;;;;;;5035341;28;20171;-87
2022/01/30 11:29:45;;;;;;;0.50;0.50;;;11.00;72.50;;;;;;5035015;28;20213;-86
2022/01/30 11:32:12;;;;;;;1.90;0.60;;;11.00;72.10;;;;;;5017273;28;20184;-87
2022/01/30 11:34:40;;;;;;;0.40;0.40;;;11.10;71.00;;;;;;5034657;28;20231;-87
2022/01/30 11:37:08;;;;;;;4.00;0.60;;;11.10;70.50;;;;;;5016670;28;20211;-87
2022/01/30 11:39:37;;;;;;;1.33;0.60;;;11.20;69.70;;;;;;5034628;28;20630;-87
2022/01/30 11:42:10;;;;;;;1.90;0.40;;;11.30;68.10;;;;;;5034723;28;20262;-88
2022/01/30 11:44:38;;;;;;;0.50;0.50;;;11.40;67.30;;;;;;5016858;28;20229;-87
2022/01/30 11:47:03;;;;;;;2.27;0.57;;;11.40;66.90;;;;;;5017038;28;20186;-86
2022/01/30 11:50:04;;;;;;;0.50;0.50;;;11.30;65.90;;;;;;5034506;28;20196;-86
2022/01/30 11:52:49;;;;;;;0.30;0.30;;;11.30;66.90;;;;;;5016526;28;20538;-86
2022/01/30 11:55:48;;;;;;;0.40;0.40;;;11.20;67.90;;;;;;5034373;28;20287;-86
2022/01/30 11:58:40;;;;;;;0.40;0.40;;;11.10;70.80;;;;;;5034700;28;20188;-86
2022/01/30 12:01:24;;;;;;;0.50;0.50;;;11.00;71.30;;;;;;5034083;28;20173;-85
2022/01/30 12:03:59;;;;;;;1.17;0.30;;;10.90;72.50;;;;;;5033625;28;20161;-86
2022/01/30 12:06:25;;;;;;;0.40;0.40;;;10.80;72.50;;;;;;5034787;28;20160;-86
2022/01/30 12:09:19;;;;;;;0.50;0.50;;;10.90;72.70;;;;;;5016859;28;20509;-86
2022/01/30 12:11:51;;;;;;;0.63;0.40;;;10.90;72.90;;;;;;5034644;28;20188;-86
2022/01/30 12:14:19;;;;;;;0.30;0.30;;;10.90;73.30;;;;;;5034318;28;20536;-86
2022/01/30 12:16:56;;;;;;;4.20;0.50;;;10.90;72.10;;;;;;5017355;28;20273;-87
2022/01/30 12:19:44;;;;;;;0.57;0.40;;;10.90;71.50;;;;;;5039267;28;20161;-87
2022/01/30 12:22:16;;;;;;;1.80;0.37;;;10.90;71.30;;;;;;5029568;28;20246;-86
2022/01/30 12:24:46;;;;;;;2.13;0.40;;;10.80;70.60;;;;;;5039472;28;20693;-84
2022/01/30 12:27:12;;;;;;;3.17;0.60;;;10.70;71.00;;;;;;5035807;28;20172;-86
2022/01/30 12:29:45;;;;;;;2.77;1.53;;;10.70;70.70;;;;;;5035006;28;20238;-85
2022/01/30 12:32:22;;;;;;;11.03;0.80;;;10.60;71.30;;;;;;5035906;28;20174;-84
2022/01/30 12:35:00;;;;;;;9.77;2.00;;;10.50;71.20;;;;;;5034216;28;20304;-85
2022/01/30 12:37:27;;;;;;;5.60;2.50;;;10.50;72.30;;;;;;5016518;28;20333;-84
2022/01/30 12:39:54;;;;;;;1.30;0.33;;;10.40;71.70;;;;;;5034670;28;20635;-83
2022/01/30 12:42:22;;;;;;;0.47;0.47;;;10.30;75.10;;;;;;5034447;28;20181;-84
2022/01/30 12:44:49;;;;;;;1.43;1.33;;;10.10;76.10;;;;;;5016285;28;20738;-85
2022/01/30 12:47:15;;;;;;;9.87;4.43;;;10.10;75.30;;;;;;5034184;28;20227;-85
2022/01/30 12:49:50;;;;;;;1.70;0.40;;;10.00;74.70;;;;;;5036096;28;20174;-84
2022/01/30 12:52:37;;;;;;;0.63;0.63;;;10.00;74.50;;;;;;5037098;28;20175;-85
2022/01/30 12:55:12;;;;;;;0.47;0.30;;;10.00;75.10;;;;;;5038272;28;20180;-85
2022/01/30 12:57:40;;;;;;;0.40;0.40;;;10.00;75.80;;;;;;5019164;28;20225;-86
2022/01/30 13:00:09;;;;;;;0.97;0.40;;;10.10;73.10;;;;;;5039512;28;20662;-84
2022/01/30 13:02:37;;;;;;;0.30;0.30;;;10.10;72.30;;;;;;5040730;28;20172;-84
2022/01/30 13:05:11;;;;;;;0.80;0.80;;;10.00;73.70;;;;;;5040822;28;20203;-85
2022/01/30 13:07:37;;;;;;;0.80;0.80;;;10.10;74.10;;;;;;5021492;28;20195;-84
2022/01/30 13:10:13;;;;;;;1.23;0.63;;;10.20;73.40;;;;;;5036854;28;20165;-85
2022/01/30 13:12:44;;;;;;;0.60;0.60;;;10.20;72.90;;;;;;5034929;28;20552;-86
2022/01/30 13:15:17;;;;;;;0.93;0.57;;;10.10;72.90;;;;;;5037453;28;20180;-85
2022/01/30 13:17:43;;;;;;;0.60;0.50;;;10.10;72.40;;;;;;5038768;28;20195;-87
2022/01/30 13:20:12;;;;;;;0.57;0.57;;;10.10;72.70;;;;;;5037764;28;20251;-85
2022/01/30 13:22:40;;;;;;;0.60;0.60;;;10.10;73.00;;;;;;5037311;28;20175;-85
2022/01/30 13:25:10;;;;;;;1.13;0.60;;;10.00;74.00;;;;;;5037886;28;20168;-86
2022/01/30 13:27:37;;;;;;;0.60;0.60;;;10.10;74.50;;;;;;5037730;28;20168;-85
2022/01/30 13:30:05;;;;;;;0.43;0.43;;;10.10;72.80;;;;;;5036882;28;20304;-85
2022/01/30 13:32:31;;;;;;;0.50;0.50;;;10.00;74.00;;;;;;5037177;28;20630;-85
2022/01/30 13:34:58;;;;;;;0.70;0.70;;;10.00;74.20;;;;;;5037049;28;20260;-85
2022/01/30 13:37:24;;;;;;;0.60;0.60;;;10.00;72.60;;;;;;5036863;28;20200;-85
2022/01/30 13:47:52;;;;;;;0.50;0.50;;;10.10;72.80;;;;;;5037289;28;20604;-85
2022/01/30 13:50:20;;;;;;;0.80;0.80;;;10.10;73.00;;;;;;5036957;28;20172;-85
2022/01/30 13:52:46;;;;;;;1.27;0.57;;;10.00;69.40;;;;;;5019156;28;20516;-84
2022/01/30 13:55:12;;;;;;;0.87;0.73;;;10.00;68.50;;;;;;5037698;28;20655;-85
2022/01/30 13:57:42;;;;;;;1.50;0.90;;;10.00;68.70;;;;;;5036846;28;20204;-85
2022/01/30 14:00:14;;;;;;;3.00;0.90;;;10.00;68.30;;;;;;5037090;28;20168;-85
2022/01/30 14:02:53;;;;;;;0.90;0.90;;;9.90;69.30;;;;;;5037098;28;20180;-85
2022/01/30 14:05:30;;;;;;;0.93;0.87;;;10.00;67.90;;;;;;5036936;28;20179;-86
2022/01/30 14:07:58;;;;;;;0.70;0.70;;;9.90;68.20;;;;;;5037240;28;20209;-85